createdAt,value
2022-08-26T00:01:08.325Z,7.73
2022-08-26T00:03:54.888Z,7.77
2022-08-26T00:06:42.311Z,7.53
2022-08-26T00:09:32.998Z,7.50
2022-08-26T00:12:31.589Z,7.43
2022-08-26T00:15:24.586Z,6.77
2022-08-26T00:18:21.941Z,7.30
2022-08-26T00:21:09.797Z,7.90
2022-08-26T00:23:56.225Z,7.20
2022-08-26T00:26:44.609Z,8.13
2022-08-26T00:29:34.872Z,8.50
2022-08-26T00:32:23.547Z,6.60
2022-08-26T00:35:10.656Z,6.87
2022-08-26T00:37:56.863Z,8.00
2022-08-26T00:40:50.266Z,7.53
2022-08-26T00:43:47.113Z,7.90
2022-08-26T00:46:36.235Z,7.40
2022-08-26T00:49:32.004Z,6.33
2022-08-26T00:52:20.496Z,6.57
2022-08-26T00:55:22.139Z,6.23
2022-08-26T00:58:09.008Z,6.30
2022-08-26T01:00:55.189Z,6.87
2022-08-26T01:03:42.990Z,6.53
2022-08-26T01:06:28.806Z,6.73
2022-08-26T01:09:15.809Z,7.00
2022-08-26T01:12:03.015Z,6.73
2022-08-26T01:14:49.715Z,7.07
2022-08-26T01:17:35.537Z,6.93
2022-08-26T01:20:21.605Z,7.73
2022-08-26T01:23:09.376Z,7.23
2022-08-26T01:25:58.042Z,7.07
2022-08-26T01:28:44.548Z,7.10
2022-08-26T01:31:42.379Z,6.60
2022-08-26T01:34:33.041Z,7.80
2022-08-26T01:37:20.146Z,6.90
2022-08-26T01:40:08.391Z,7.40
2022-08-26T01:42:55.402Z,7.70
2022-08-26T01:45:42.737Z,7.20
2022-08-26T01:48:32.054Z,6.80
2022-08-26T01:51:19.532Z,7.37
2022-08-26T01:54:07.436Z,7.27
2022-08-26T01:56:58.704Z,7.20
2022-08-26T01:59:44.846Z,7.60
2022-08-26T02:02:31.029Z,7.03
2022-08-26T02:05:19.903Z,6.70
2022-08-26T02:08:07.375Z,7.37
2022-08-26T02:10:54.884Z,7.13
2022-08-26T02:13:44.582Z,7.57
2022-08-26T02:16:35.149Z,6.50
2022-08-26T02:19:30.994Z,8.03
2022-08-26T02:22:19.929Z,7.93
2022-08-26T02:25:13.257Z,6.60
2022-08-26T02:28:00.094Z,6.83
2022-08-26T02:30:49.193Z,7.10
2022-08-26T02:33:36.757Z,7.70
2022-08-26T02:36:23.611Z,7.27
2022-08-26T02:39:19.536Z,7.43
2022-08-26T02:42:09.578Z,7.10
2022-08-26T02:44:55.927Z,6.53
2022-08-26T02:47:41.552Z,7.60
2022-08-26T02:50:28.700Z,7.50
2022-08-26T02:53:15.785Z,7.33
2022-08-26T02:56:03.607Z,7.60
2022-08-26T02:58:49.670Z,7.77
2022-08-26T03:01:36.946Z,7.17
2022-08-26T03:04:23.715Z,7.80
2022-08-26T03:07:15.541Z,8.40
2022-08-26T03:10:01.742Z,8.50
2022-08-26T03:12:55.204Z,7.30
2022-08-26T03:15:42.541Z,7.83
2022-08-26T03:18:28.795Z,7.33
2022-08-26T03:21:21.385Z,8.00
2022-08-26T03:24:07.217Z,7.80
2022-08-26T03:26:53.279Z,7.57
2022-08-26T03:29:58.485Z,8.00
2022-08-26T03:32:44.554Z,7.97
2022-08-26T03:35:31.158Z,8.00
2022-08-26T03:38:16.963Z,8.03
2022-08-26T03:41:03.333Z,8.83
2022-08-26T03:43:51.612Z,8.53
2022-08-26T03:46:39.024Z,8.37
2022-08-26T03:49:25.582Z,8.60
2022-08-26T03:52:14.838Z,8.97
2022-08-26T03:55:01.038Z,8.60
2022-08-26T03:57:48.747Z,8.60
2022-08-26T04:00:34.910Z,9.57
2022-08-26T04:03:42.341Z,8.90
2022-08-26T04:06:30.374Z,8.60
2022-08-26T04:09:22.255Z,8.27
2022-08-26T04:12:09.212Z,8.43
2022-08-26T04:14:57.375Z,8.80
2022-08-26T04:17:44.310Z,9.10
2022-08-26T04:20:31.537Z,8.80
2022-08-26T04:23:18.207Z,8.10
2022-08-26T04:26:05.663Z,9.03
2022-08-26T04:28:54.477Z,8.83
2022-08-26T04:31:41.621Z,8.80
2022-08-26T04:34:28.982Z,8.60
2022-08-26T04:37:15.511Z,10.00
2022-08-26T04:40:01.746Z,8.67
2022-08-26T04:42:48.405Z,9.23
2022-08-26T04:45:37.313Z,8.90
2022-08-26T04:48:23.534Z,8.97
2022-08-26T04:51:10.246Z,8.13
2022-08-26T04:53:56.973Z,9.17
2022-08-26T04:56:44.690Z,10.20
2022-08-26T04:59:37.125Z,9.50
2022-08-26T05:02:27.874Z,9.37
2022-08-26T05:05:14.043Z,9.00
2022-08-26T05:08:00.280Z,9.43
2022-08-26T05:10:49.499Z,9.07
2022-08-26T05:13:35.880Z,10.00
2022-08-26T05:16:22.960Z,8.70
2022-08-26T05:19:08.884Z,8.80
2022-08-26T05:21:54.695Z,9.83
2022-08-26T05:24:41.426Z,9.00
2022-08-26T05:27:27.388Z,9.63
2022-08-26T05:30:14.330Z,10.20
2022-08-26T05:33:00.105Z,10.10
2022-08-26T05:35:46.684Z,9.43
2022-08-26T05:38:32.454Z,9.20
2022-08-26T05:41:21.692Z,9.27
2022-08-26T05:44:08.814Z,9.40
2022-08-26T05:46:55.679Z,9.13
2022-08-26T05:49:43.787Z,10.77
2022-08-26T05:52:37.813Z,9.80
2022-08-26T05:55:23.598Z,10.40
2022-08-26T05:58:09.734Z,9.90
2022-08-26T06:00:59.847Z,9.37
2022-08-26T06:03:46.886Z,8.90
2022-08-26T06:06:36.225Z,8.90
2022-08-26T06:09:22.166Z,9.00
2022-08-26T06:12:09.631Z,9.30
2022-08-26T06:14:55.569Z,9.60
2022-08-26T06:17:41.566Z,9.67
2022-08-26T06:20:27.624Z,8.27
2022-08-26T06:23:33.804Z,9.87
2022-08-26T06:26:22.290Z,9.80
2022-08-26T06:29:08.324Z,9.87
2022-08-26T06:31:56.158Z,9.27
2022-08-26T06:34:42.026Z,9.43
2022-08-26T06:37:27.927Z,9.37
2022-08-26T06:40:16.701Z,9.83
2022-08-26T06:43:04.866Z,10.10
2022-08-26T06:45:51.953Z,9.63
2022-08-26T06:48:39.552Z,10.30
2022-08-26T06:51:27.579Z,9.60
2022-08-26T06:54:14.684Z,10.23
2022-08-26T06:57:01.773Z,9.70
2022-08-26T06:59:48.059Z,9.93
2022-08-26T07:02:37.055Z,9.70
2022-08-26T07:05:23.551Z,11.43
2022-08-26T07:08:09.640Z,9.50
2022-08-26T07:10:56.692Z,9.73
2022-08-26T07:13:43.090Z,9.63
2022-08-26T07:16:29.922Z,10.50
2022-08-26T07:19:17.393Z,10.43
2022-08-26T07:22:13.575Z,10.60
2022-08-26T07:25:00.848Z,10.90
2022-08-26T07:27:46.682Z,11.00
2022-08-26T07:30:41.222Z,9.70
2022-08-26T07:33:29.734Z,9.90
2022-08-26T07:36:16.578Z,9.80
2022-08-26T07:39:02.138Z,10.63
2022-08-26T07:41:48.547Z,9.43
2022-08-26T07:44:35.228Z,10.17
2022-08-26T07:47:24.880Z,9.30
2022-08-26T07:50:11.953Z,9.77
2022-08-26T07:52:58.844Z,9.80
2022-08-26T07:55:45.065Z,9.80
2022-08-26T07:58:32.249Z,11.00
2022-08-26T08:01:24.116Z,11.00
2022-08-26T08:04:10.451Z,9.30
2022-08-26T08:06:59.930Z,10.10
2022-08-26T08:09:49.388Z,9.80
2022-08-26T08:12:35.851Z,10.90
2022-08-26T08:15:24.875Z,9.20
2022-08-26T08:18:15.850Z,10.20
2022-08-26T08:21:21.313Z,10.10
2022-08-26T08:24:09.934Z,9.73
2022-08-26T08:26:56.168Z,10.03
2022-08-26T08:29:43.466Z,10.33
2022-08-26T08:32:29.564Z,10.23
2022-08-26T08:35:18.211Z,10.27
2022-08-26T08:38:04.163Z,10.60
2022-08-26T08:40:50.550Z,10.70
2022-08-26T08:43:41.440Z,11.60
2022-08-26T08:46:31.113Z,9.57
2022-08-26T08:49:17.799Z,11.37
2022-08-26T08:52:11.405Z,10.10
2022-08-26T08:54:58.084Z,9.60
2022-08-26T08:57:54.003Z,11.30
2022-08-26T09:00:45.798Z,11.47
2022-08-26T09:03:37.534Z,10.33
2022-08-26T09:06:24.518Z,10.77
2022-08-26T09:09:20.640Z,10.10
2022-08-26T09:12:08.878Z,10.90
2022-08-26T09:14:57.682Z,10.00
2022-08-26T09:17:52.462Z,9.67
2022-08-26T09:20:49.550Z,10.63
2022-08-26T09:23:37.145Z,11.70
2022-08-26T09:26:52.603Z,11.17
2022-08-26T09:29:50.419Z,10.60
2022-08-26T09:32:38.300Z,10.87
2022-08-26T09:35:36.274Z,10.00
2022-08-26T09:38:32.985Z,11.37
2022-08-26T09:41:26.634Z,10.40
2022-08-26T09:44:15.621Z,9.70
2022-08-26T09:47:06.314Z,10.87
2022-08-26T09:50:01.458Z,9.77
2022-08-26T09:53:04.228Z,10.70
2022-08-26T09:56:11.434Z,10.40
2022-08-26T09:58:57.731Z,10.40
2022-08-26T10:01:44.998Z,10.30
2022-08-26T10:04:31.896Z,9.53
2022-08-26T10:07:32.742Z,10.23
2022-08-26T10:10:18.660Z,10.60
2022-08-26T10:13:11.228Z,10.27
2022-08-26T10:16:14.690Z,11.20
2022-08-26T10:19:25.194Z,11.20
2022-08-26T10:22:33.325Z,10.20
2022-08-26T10:25:24.424Z,10.73
2022-08-26T10:28:18.024Z,10.13
2022-08-26T10:31:27.441Z,9.50
2022-08-26T10:34:14.283Z,10.07
2022-08-26T10:37:14.181Z,10.27
2022-08-26T10:40:08.135Z,10.10
2022-08-26T10:42:57.464Z,10.50
2022-08-26T10:46:07.028Z,9.63
2022-08-26T10:49:07.060Z,9.40
2022-08-26T10:52:00.034Z,9.10
2022-08-26T10:54:54.739Z,9.53
2022-08-26T10:57:47.562Z,9.53
2022-08-26T11:00:58.447Z,10.20
2022-08-26T11:03:54.009Z,10.77
2022-08-26T11:06:46.703Z,9.80
2022-08-26T11:09:44.995Z,9.70
2022-08-26T11:12:37.295Z,10.00
2022-08-26T11:15:46.577Z,10.90
2022-08-26T11:18:54.579Z,10.20
2022-08-26T11:21:44.160Z,12.00
2022-08-26T11:24:44.194Z,11.30
2022-08-26T11:27:39.965Z,11.20
2022-08-26T11:30:27.128Z,11.87
2022-08-26T11:33:33.039Z,12.07
2022-08-26T11:36:37.535Z,11.63
2022-08-26T11:39:28.768Z,13.10
2022-08-26T11:42:23.463Z,14.40
2022-08-26T11:45:27.462Z,14.63
2022-08-26T11:48:17.877Z,17.30
2022-08-26T11:51:06.099Z,17.80
2022-08-26T11:54:08.627Z,16.47
2022-08-26T11:56:56.147Z,16.07
2022-08-26T11:59:43.615Z,15.57
2022-08-26T12:02:29.479Z,16.00
2022-08-26T12:05:22.383Z,16.37
2022-08-26T12:08:11.773Z,15.23
2022-08-26T12:11:06.686Z,15.40
2022-08-26T12:13:57.589Z,14.47
2022-08-26T12:16:43.478Z,15.70
2022-08-26T12:19:32.849Z,15.43
2022-08-26T12:22:31.356Z,15.20
2022-08-26T12:25:24.711Z,16.40
2022-08-26T12:28:10.977Z,16.17
2022-08-26T12:31:02.691Z,16.00
2022-08-26T12:33:49.448Z,15.20
2022-08-26T12:36:40.234Z,15.53
2022-08-26T12:39:33.203Z,14.63
2022-08-26T12:42:21.849Z,15.00
2022-08-26T12:45:08.017Z,15.03
2022-08-26T12:47:55.659Z,13.87
2022-08-26T12:50:46.969Z,16.03
2022-08-26T12:53:38.395Z,15.40
2022-08-26T12:56:26.734Z,15.00
2022-08-26T12:59:18.858Z,16.17
2022-08-26T13:02:07.060Z,14.90
2022-08-26T13:05:02.276Z,14.70
2022-08-26T13:08:06.725Z,15.50
2022-08-26T13:11:04.993Z,14.70
2022-08-26T13:13:56.595Z,13.30
2022-08-26T13:16:42.913Z,13.13
2022-08-26T13:19:31.652Z,14.23
2022-08-26T13:22:20.018Z,13.47
2022-08-26T13:25:06.067Z,13.90
2022-08-26T13:27:52.636Z,14.20
2022-08-26T13:30:38.409Z,14.27
2022-08-26T13:33:25.204Z,13.10
2022-08-26T13:36:11.390Z,14.50
2022-08-26T13:38:57.177Z,14.53
2022-08-26T13:41:43.257Z,14.20
2022-08-26T13:44:28.805Z,13.70
2022-08-26T13:47:14.840Z,13.90
2022-08-26T13:50:01.010Z,13.77
2022-08-26T13:52:46.604Z,13.43
2022-08-26T13:55:32.217Z,13.13
2022-08-26T13:58:20.807Z,14.60
2022-08-26T14:01:09.044Z,13.70
2022-08-26T14:03:56.482Z,14.90
2022-08-26T14:06:43.381Z,16.00
2022-08-26T14:09:29.072Z,14.97
2022-08-26T14:12:14.796Z,14.47
2022-08-26T14:15:01.909Z,12.90
2022-08-26T14:17:48.573Z,15.30
2022-08-26T14:20:35.645Z,15.60
2022-08-26T14:23:22.994Z,14.47
2022-08-26T14:26:28.073Z,14.40
2022-08-26T14:29:16.799Z,14.80
2022-08-26T14:32:07.167Z,14.30
2022-08-26T14:34:54.400Z,13.93
2022-08-26T14:37:41.766Z,13.63
2022-08-26T14:40:30.295Z,14.17
2022-08-26T14:43:16.429Z,13.80
2022-08-26T14:46:02.370Z,12.03
2022-08-26T14:48:48.100Z,12.00
2022-08-26T14:51:34.263Z,12.13
2022-08-26T14:54:21.438Z,10.33
2022-08-26T14:57:08.683Z,12.13
2022-08-26T14:59:59.073Z,11.90
2022-08-26T15:02:45.334Z,11.40
2022-08-26T15:05:31.221Z,9.93
2022-08-26T15:08:18.208Z,10.17
2022-08-26T15:11:04.415Z,10.27
2022-08-26T15:13:50.205Z,9.13
2022-08-26T15:16:37.141Z,11.17
2022-08-26T15:19:25.682Z,9.47
2022-08-26T15:22:12.134Z,10.27
2022-08-26T15:24:58.740Z,10.80
2022-08-26T15:27:44.311Z,11.30
2022-08-26T15:30:29.937Z,12.13
2022-08-26T15:33:15.655Z,13.30
2022-08-26T15:36:04.462Z,14.70
2022-08-26T15:38:52.351Z,14.47
2022-08-26T15:41:38.466Z,16.23
2022-08-26T15:44:25.910Z,16.07
2022-08-26T15:47:12.699Z,17.40
2022-08-26T15:49:58.475Z,16.87
2022-08-26T15:52:44.796Z,16.70
2022-08-26T15:55:34.539Z,18.00
2022-08-26T15:58:23.144Z,17.43
2022-08-26T16:01:11.126Z,18.17
2022-08-26T16:03:57.837Z,17.30
2022-08-26T16:06:48.083Z,18.97
2022-08-26T16:09:34.047Z,18.80
2022-08-26T16:12:19.717Z,18.50
2022-08-26T16:15:06.031Z,18.67
2022-08-26T16:17:54.072Z,20.00
2022-08-26T16:20:50.127Z,19.53
2022-08-26T16:23:52.381Z,20.43
2022-08-26T16:26:38.972Z,19.03
2022-08-26T16:29:33.878Z,17.67
2022-08-26T16:32:22.403Z,19.53
2022-08-26T16:35:09.121Z,19.50
2022-08-26T16:37:56.288Z,20.53
2022-08-26T16:40:42.131Z,22.13
2022-08-26T16:43:28.486Z,23.23
2022-08-26T16:46:16.004Z,21.13
2022-08-26T16:49:04.419Z,23.33
2022-08-26T16:51:51.728Z,21.97
2022-08-26T16:54:39.665Z,23.83
2022-08-26T16:57:25.167Z,23.17
2022-08-26T17:00:16.616Z,23.23
2022-08-26T17:03:02.733Z,24.57
2022-08-26T17:05:48.574Z,24.07
2022-08-26T17:08:34.989Z,23.77
2022-08-26T17:11:21.134Z,28.43
2022-08-26T17:14:07.557Z,30.53
2022-08-26T17:16:53.529Z,27.87
2022-08-26T17:19:47.010Z,30.13
2022-08-26T17:22:34.823Z,31.00
2022-08-26T17:25:22.528Z,28.67
2022-08-26T17:28:17.285Z,30.20
2022-08-26T17:31:06.859Z,30.73
2022-08-26T17:33:54.406Z,29.47
2022-08-26T17:36:40.518Z,29.50
2022-08-26T17:39:27.141Z,30.57
2022-08-26T17:42:13.254Z,32.93
2022-08-26T17:44:58.956Z,31.47
2022-08-26T17:47:45.495Z,29.30
2022-08-26T17:50:31.371Z,30.60
2022-08-26T17:53:18.764Z,30.43
2022-08-26T17:56:06.904Z,31.40
2022-08-26T17:58:54.914Z,31.20
2022-08-26T18:01:43.680Z,30.80
2022-08-26T18:04:29.949Z,29.83
2022-08-26T18:07:16.548Z,28.47
2022-08-26T18:10:06.756Z,29.43
2022-08-26T18:12:54.367Z,29.70
2022-08-26T18:15:41.748Z,28.30
2022-08-26T18:18:27.471Z,25.93
2022-08-26T18:21:19.497Z,27.43
2022-08-26T18:24:08.321Z,25.60
2022-08-26T18:26:57.383Z,26.17
2022-08-26T18:29:45.428Z,24.80
2022-08-26T18:32:33.749Z,23.97
2022-08-26T18:35:21.432Z,23.67
2022-08-26T18:38:11.273Z,26.40
2022-08-26T18:40:59.056Z,23.57
2022-08-26T18:43:51.912Z,23.27
2022-08-26T18:46:38.720Z,22.40
2022-08-26T18:49:24.327Z,23.13
2022-08-26T18:52:10.333Z,23.43
2022-08-26T18:55:08.420Z,21.37
2022-08-26T18:57:56.636Z,21.73
2022-08-26T19:00:44.756Z,22.67
2022-08-26T19:03:30.661Z,25.27
2022-08-26T19:06:18.016Z,23.70
2022-08-26T19:09:05.783Z,22.67
2022-08-26T19:11:53.722Z,21.80
2022-08-26T19:14:41.785Z,24.33
2022-08-26T19:17:27.617Z,21.07
2022-08-26T19:20:13.603Z,22.30
2022-08-26T19:23:02.675Z,21.63
2022-08-26T19:25:56.463Z,21.43
2022-08-26T19:28:45.794Z,20.67
2022-08-26T19:31:36.940Z,22.90
2022-08-26T19:34:22.855Z,21.67
2022-08-26T19:37:08.374Z,21.77
2022-08-26T19:39:53.996Z,21.67
2022-08-26T19:42:39.963Z,22.80
2022-08-26T19:45:27.916Z,22.87
2022-08-26T19:48:15.334Z,22.20
2022-08-26T19:51:03.257Z,24.10
2022-08-26T19:53:49.532Z,19.63
2022-08-26T19:56:35.184Z,23.57
2022-08-26T19:59:21.550Z,22.10
2022-08-26T20:02:10.852Z,20.40
2022-08-26T20:05:03.929Z,20.73
2022-08-26T20:07:50.540Z,20.50
2022-08-26T20:10:36.524Z,21.00
2022-08-26T20:13:23.714Z,20.57
2022-08-26T20:16:13.763Z,20.40
2022-08-26T20:19:18.307Z,21.57
2022-08-26T20:22:08.300Z,20.47
2022-08-26T20:24:54.320Z,19.63
2022-08-26T20:27:41.212Z,19.93
2022-08-26T20:30:28.017Z,18.80
2022-08-26T20:33:13.435Z,20.13
2022-08-26T20:36:01.578Z,19.27
2022-08-26T20:38:53.779Z,20.10
2022-08-26T20:41:39.445Z,18.97
2022-08-26T20:44:25.740Z,19.23
2022-08-26T20:47:11.734Z,19.50
2022-08-26T20:49:59.643Z,21.30
2022-08-26T20:52:46.247Z,17.50
2022-08-26T20:55:37.513Z,18.43
2022-08-26T20:58:24.858Z,18.80
2022-08-26T21:01:18.043Z,20.03
2022-08-26T21:04:08.357Z,20.47
2022-08-26T21:06:54.736Z,19.73
2022-08-26T21:09:41.234Z,19.27
2022-08-26T21:12:27.891Z,20.57
2022-08-26T21:15:14.427Z,20.07
2022-08-26T21:18:00.669Z,21.70
2022-08-26T21:20:46.815Z,21.07
2022-08-26T21:23:32.579Z,20.20
2022-08-26T21:26:18.757Z,19.00
2022-08-26T21:29:04.871Z,20.67
2022-08-26T21:31:50.755Z,22.27
2022-08-26T21:34:39.676Z,20.97
2022-08-26T21:37:26.585Z,19.70
2022-08-26T21:40:12.624Z,18.17
2022-08-26T21:42:59.464Z,18.23
2022-08-26T21:45:45.318Z,20.57
2022-08-26T21:48:32.403Z,20.13
2022-08-26T21:51:21.932Z,19.50
2022-08-26T21:54:11.088Z,18.00
2022-08-26T21:56:57.857Z,18.90
2022-08-26T21:59:44.851Z,17.67
2022-08-26T22:02:32.694Z,18.40
2022-08-26T22:05:20.697Z,19.03
2022-08-26T22:08:06.781Z,19.13
2022-08-26T22:10:53.488Z,17.47
2022-08-26T22:13:41.406Z,19.27
2022-08-26T22:16:28.736Z,19.10
2022-08-26T22:19:17.071Z,18.70
2022-08-26T22:22:05.583Z,18.80
2022-08-26T22:24:53.869Z,18.13
2022-08-26T22:27:40.501Z,19.27
2022-08-26T22:30:29.025Z,17.63
2022-08-26T22:33:15.916Z,16.70
2022-08-26T22:36:02.575Z,18.23
2022-08-26T22:38:49.503Z,18.30
2022-08-26T22:41:35.581Z,16.17
2022-08-26T22:44:22.203Z,15.90
2022-08-26T22:47:08.325Z,17.13
2022-08-26T22:49:54.199Z,16.43
2022-08-26T22:52:41.054Z,15.70
2022-08-26T22:55:27.342Z,17.50
2022-08-26T22:58:14.598Z,16.53
2022-08-26T23:01:00.714Z,17.20
2022-08-26T23:03:48.681Z,14.97
2022-08-26T23:06:36.621Z,15.80
2022-08-26T23:09:22.883Z,16.30
2022-08-26T23:12:09.058Z,15.73
2022-08-26T23:14:56.944Z,14.73
2022-08-26T23:17:42.836Z,14.83
2022-08-26T23:20:29.187Z,15.90
2022-08-26T23:23:15.356Z,15.17
2022-08-26T23:26:05.571Z,14.20
2022-08-26T23:28:53.389Z,14.80
2022-08-26T23:31:40.867Z,15.13
2022-08-26T23:34:45.470Z,13.77
2022-08-26T23:37:37.093Z,14.67
2022-08-26T23:40:30.748Z,15.17
2022-08-26T23:43:17.366Z,14.13
2022-08-26T23:46:03.747Z,15.23
2022-08-26T23:48:49.816Z,14.63
2022-08-26T23:51:54.468Z,15.20
2022-08-26T23:54:40.953Z,14.80
2022-08-26T23:57:26.776Z,15.03
